Terminal Aerodrome Forecast
Issued by NWS Paducah, KY

Home | Current Version | Previous Version | Graphics & Text | Print | Product List | Glossary On
Versions: 1 2 3 4 5 6 7 8 9 10 11 12 13
000
FTUS43 KPAH 151140
TAFPAH
TAF
KPAH 151140Z 1512/1612 29004KT P6SM OVC035
     FM151500 28007KT P6SM SCT040
     FM151900 23007KT P6SM BKN040
     FM160000 20006KT P6SM FEW200=

USA.gov is the U.S. government's official web portal to all federal, state and local government web resources and services.